メインページ
METAR-TAF:

METAR-TAF

空港 :

High Level, アルバータ州, カナダ

緯度: 58-37N, 経度: 117-10W, 海抜: 338m

現時点の気象観測

当レポートは1時間6分前の17:00(UTC)に作成
変向風 2kt
気温 20°C
湿度 68%
気圧 1010 hPa
視程: 24.1km
高度2500ftの雲はほとんどない
高度9000ftの雲は散在している
高度26000ftの曇り

METAR: CYOJ 161700Z VRB02KT 15SM FEW025 SCT090 OVC260 20/14 A2983 RMK CU2AC1CS5 SLP107 DENSITY ALT 2100FT

時間: 12:06 (18:06 UTC)

予報

当レポートは5時間28分前の12:38(UTC)に作成
予報は16日の 13時(UTC)から 17日の 01時(UTC)まで有効
変向風 3kt
視程: 10km
高度6000ftの千切れ雲あり
高度12000ftの曇り
16日の 1600時(UTC)から
北/北西の風 5kt
視程: 10km
高度3000ftの雲はほとんどない
高度6000ftの雲は散在している
16日の 2100時(UTC)から
北/北西の風 5kt
視程: 10km
高度5000ftの雲は散在している
高度10000ftの千切れ雲あり
16日の 21時(UTC)から 17日の 01時(UTC)まで一時的に
視程: 10km
高度5000ftの千切れ雲あり
高度10000ftの曇り
弱いにわか雨
確率 30%
16日の 21時(UTC)から 17日の 01時(UTC)まで
変向風 15kt、最大25ktの突風を伴う
視程: 6.4km
高度4000ftの曇り, 積乱雲.
激しい雷雨, 雨

TAF: CYOJ 161238Z 1613/1701 VRB03KT P6SM BKN060 OVC120 FM161600 34005KT P6SM FEW030 SCT060 FM162100 34005KT P6SM SCT050 BKN100 TEMPO 1621/1701 P6SM -SHRA BKN050 OVC100 PROB30 1621/1701 VRB15G25KT 4SM TSRA OVC040CB RMK FCST BASED ON AUTO OBS. NXT FCST BY 161900Z

4,000以上の空港の気象観測と天気予報(METAR報とTAF報)

利用可能な観測所は地図上に黄色い丸と赤い丸で示す。

丸の上にカーソルを重ねると観測所名を参照できる。

次にクリックすると気象観測と天気予報を参照できる。

マップの切り替え:黒色「×」印の緑ボタンをクリックして拡大、「-」印の緑ボタンをクリックして縮小、緑色の三角印をクリックして隣りの地図に切り替え


METAR-TAF: